ロサンゼルス の空港の天気 - METARとTAF

ロサンゼルス国際空港 ( KLAX / LAX ) - アメリカ カリフォルニア州ロサンゼルス
飛行場実況気象(Metar)
観測時間08/13 01:53 PDT (08/13 08:53 UTC)
風向・風速北西 2m/s
視程10km以上
天気現象
なし
気温20.6℃
湿度78%
気圧1013hPa
METARKLAX 130853Z 31004KT 9SM CLR 21/17 A2992 RMK AO2 SLP130 T02060167 58003
過去の天気等 Google飛行場航空写真 Wunderground天気予報

過去48時間のMETAR

飛行場予報(TAF)
発表時間: 8/12 22:33 PDT (8/13 05:33 UTC)
予報対象時間: 12日23時 PDT ~ 14日5時 PDT
風向・風速南 3m/s
視程10km以上
全天の4割程度の雲 雲底高度 4570m
13日2時 PDT から
風向・風速不定 2m/s
視程10km以上
全天の4割程度の雲 雲底高度 4570m
13日10時 PDT から
風向・風速西 4m/s
視程10km以上
全天の4割程度の雲 雲底高度 4570m
13日13時 PDT から
風向・風速西 7m/s
視程10km以上
なし
13日20時 PDT から
風向・風速西 4m/s
視程10km以上
なし
14日2時 PDT から
風向・風速不定 2m/s
視程10km以上
なし
KLAX 130533Z 1306/1412 19005KT P6SM SCT150
FM130900 VRB03KT P6SM SCT150
FM131700 26007KT P6SM SCT150
FM132000 26014KT P6SM SKC
FM140300 26007KT P6SM SKC
FM140900 VRB03KT P6SM SKC